Steinkjer, Norge

14:36:CEST den 25. Oktober 2014 (GMT +0200)
Helgesmark/Byafossen | Change Station
CLOSE
Current Station
Personlig værstasjon
Location: Steinkjer, NORD-TRNDELAG
Høyde over havet: 328 ft
Nearby Weather Stations

H.o.h 328 ft 64.03 °N, 11.55 °E | Updated 3 seconds ago

Clear
Klart
46.8 °F
Feels Like 47 °F
N
0.0
Vind Variabel Vind from SSØ
Gusts 0.0 mph

I dag
High -- | Low -- °F
--% Chance of Precip.
I går
High -- | Low -- °F
Precip. -- tommer
8:33 AM 5:21 PM
Økende sigd, 3% visible
Lufttrykk 29.59 tommer
Sikt -9999.0 eng. mil
Skyet
Nedkjølingseffekt 47 °F
Duggpunkt 44 °F
Fuktighet 90%
Regn 0.00 tommer
Snødybde Not available.
UV 0.0 av 12
Pollen Not available.
Luftkvalitet Not available.
Flu Activity Not available.
METAR ENVA 251220Z 25003KT 220V350 CAVOK 12/04 Q1002 NOSIG RMK WIND 670FT 19011KT

More Conditions Fewer Conditions

Lufttrykk 29.59 tommer
Sikt -9999.0 eng. mil
Skyet
Nedkjølingseffekt 47 °F
Duggpunkt 44 °F
Fuktighet 90%
Regn 0.00 tommer
Snødybde Not available.
UV 0.0 av 12
Pollen Not available.
Luftkvalitet Not available.
Flu Activity Not available.
METAR ENVA 251220Z 25003KT 220V350 CAVOK 12/04 Q1002 NOSIG RMK WIND 670FT 19011KT

More Conditions Fewer Conditions

10-Day Weather Forecast

Almanac

Astronomi

Oct. 25, 2014 Oppgang Nedgang
Virkelig tid 08:33 CEST 17:21 CEST
Tussmørke 07:43 CEST 18:11 CEST
Nautisk skumring 06:47 CEST 19:07 CEST
Astronomisk skumring 05:52 CEST 20:02 CEST
Månen 10:22 CEST 18:01 CEST
Lengde av synlig lys 10h 28m
Dagens lengde
8h 47m
Tomorrow will be 6m 26s shorter.
Økende sigd, 3% of the Moon is Illuminated
I dag
Økende sigd
Oct 30
Første kvarter
Nov 6
Fullmåne
Nov 14
Siste kvarter
Nov 22
Ny

Gårsdagens min/max

Country Highs Country Lows

Community

WunderPhotos

Upload Photos

1,764,821 photos uploaded!

Nearby

Snødybde

Not available.

Earthquake Activity

By Distance Mag. Time & Date
No recent earthquake activity has been reported nearby.
Minimum magnitude displayed is 2.5.

Coastal Water Temperatures

Sted Temperatur
Ingen stasjoner raporterer

Nearby Weather Stations